createdAt,value
2022-11-22T00:00:17.064Z,12.77
2022-11-22T00:02:44.271Z,10.00
2022-11-22T00:05:11.435Z,12.30
2022-11-22T00:07:38.642Z,14.93
2022-11-22T00:10:06.326Z,15.10
2022-11-22T00:12:33.143Z,14.63
2022-11-22T00:15:00.008Z,14.23
2022-11-22T00:17:26.815Z,15.93
2022-11-22T00:19:53.766Z,17.60
2022-11-22T00:22:20.507Z,16.43
2022-11-22T00:24:47.442Z,15.97
2022-11-22T00:27:14.253Z,17.20
2022-11-22T00:29:41.021Z,17.40
2022-11-22T00:32:07.940Z,15.70
2022-11-22T00:34:34.706Z,16.30
2022-11-22T00:37:01.540Z,14.50
2022-11-22T00:39:28.722Z,13.93
2022-11-22T00:41:55.907Z,12.13
2022-11-22T00:44:22.672Z,12.17
2022-11-22T00:46:49.631Z,11.53
2022-11-22T00:49:16.445Z,11.87
2022-11-22T00:51:43.398Z,10.17
2022-11-22T00:54:10.237Z,10.63
2022-11-22T00:56:37.145Z,10.40
2022-11-22T00:59:04.220Z,10.40
2022-11-22T01:01:31.587Z,9.63
2022-11-22T01:03:58.462Z,11.23
2022-11-22T01:06:25.231Z,10.00
2022-11-22T01:08:52.409Z,11.10
2022-11-22T01:11:19.308Z,11.20
2022-11-22T01:13:46.195Z,10.87
2022-11-22T01:16:13.746Z,12.30
2022-11-22T01:18:40.678Z,11.43
2022-11-22T01:21:07.570Z,11.73
2022-11-22T01:23:34.840Z,9.87
2022-11-22T01:29:30.738Z,11.27
2022-11-22T01:31:57.757Z,11.23
2022-11-22T01:34:24.553Z,11.37
2022-11-22T01:36:51.987Z,12.50
2022-11-22T01:39:18.792Z,12.33
2022-11-22T01:41:45.588Z,11.40
2022-11-22T01:44:22.755Z,13.20
2022-11-22T01:46:51.488Z,13.77
2022-11-22T01:49:24.456Z,13.97
2022-11-22T01:51:52.844Z,12.13
2022-11-22T01:54:21.972Z,12.77
2022-11-22T01:56:52.964Z,11.37
2022-11-22T01:59:22.788Z,12.47
2022-11-22T02:01:49.834Z,13.80
2022-11-22T02:04:17.733Z,15.57
2022-11-22T02:06:44.565Z,15.63
2022-11-22T02:09:12.866Z,16.63
2022-11-22T02:11:43.409Z,16.00
2022-11-22T02:14:11.398Z,16.27
2022-11-22T02:16:39.318Z,15.63
2022-11-22T02:19:09.890Z,15.77
2022-11-22T02:21:36.820Z,15.33
2022-11-22T02:24:10.439Z,16.20
2022-11-22T02:26:37.520Z,15.20
2022-11-22T02:29:06.754Z,15.07
2022-11-22T02:31:44.041Z,15.80
2022-11-22T02:34:11.562Z,14.80
2022-11-22T02:36:41.538Z,14.97
2022-11-22T02:39:09.692Z,16.60
2022-11-22T02:41:37.392Z,15.90
2022-11-22T02:44:04.788Z,22.27
2022-11-22T02:46:31.643Z,15.57
2022-11-22T02:48:58.530Z,14.73
2022-11-22T02:51:26.643Z,14.33
2022-11-22T02:53:53.949Z,15.60
2022-11-22T02:56:20.741Z,12.93
2022-11-22T02:58:47.563Z,14.23
2022-11-22T03:01:14.503Z,13.97
2022-11-22T03:03:41.541Z,16.47
2022-11-22T03:06:08.331Z,15.13
2022-11-22T03:08:35.171Z,16.40
2022-11-22T03:11:02.102Z,15.60
2022-11-22T03:13:28.913Z,16.17
2022-11-22T03:15:55.715Z,15.80
2022-11-22T03:18:22.572Z,17.17
2022-11-22T03:20:49.550Z,17.20
2022-11-22T03:23:16.477Z,15.60
2022-11-22T03:25:43.237Z,17.60
2022-11-22T03:28:10.155Z,16.80
2022-11-22T03:30:40.779Z,15.73
2022-11-22T03:33:07.718Z,15.93
2022-11-22T03:35:34.471Z,14.63
2022-11-22T03:38:01.885Z,14.33
2022-11-22T03:40:28.821Z,16.77
2022-11-22T03:42:58.344Z,15.47
2022-11-22T03:45:25.140Z,16.00
2022-11-22T03:47:51.963Z,18.83
2022-11-22T03:50:18.853Z,17.03
2022-11-22T03:52:45.700Z,15.70
2022-11-22T03:55:12.489Z,15.63
2022-11-22T03:57:39.285Z,17.80
2022-11-22T04:00:06.588Z,16.93
2022-11-22T04:02:38.799Z,16.83
2022-11-22T04:05:05.881Z,16.80
2022-11-22T04:07:32.702Z,17.57
2022-11-22T04:09:59.601Z,18.70
2022-11-22T04:12:26.361Z,18.27
2022-11-22T04:15:08.586Z,16.33
2022-11-22T04:17:48.125Z,17.03
2022-11-22T04:20:35.325Z,18.37
2022-11-22T04:23:13.062Z,16.43
2022-11-22T04:25:41.185Z,17.60
2022-11-22T04:28:08.489Z,17.60
2022-11-22T04:30:54.320Z,20.47
2022-11-22T04:33:21.392Z,26.53
2022-11-22T04:35:48.590Z,45.13
2022-11-22T04:38:16.129Z,33.63
2022-11-22T04:40:43.264Z,22.70
2022-11-22T04:43:29.898Z,63.97
2022-11-22T04:45:56.683Z,64.50
2022-11-22T04:48:23.531Z,45.63
2022-11-22T04:51:08.789Z,25.67
2022-11-22T04:53:35.785Z,17.73
2022-11-22T04:56:02.576Z,12.23
2022-11-22T04:58:29.517Z,14.87
2022-11-22T05:00:56.376Z,10.67
2022-11-22T05:03:23.542Z,12.37
2022-11-22T05:05:50.372Z,10.83
2022-11-22T05:08:17.224Z,13.00
2022-11-22T05:10:59.814Z,10.40
2022-11-22T05:13:30.988Z,12.03
2022-11-22T05:15:58.444Z,11.90
2022-11-22T05:18:25.635Z,14.37
2022-11-22T05:20:52.902Z,14.13
2022-11-22T05:23:46.336Z,20.53
2022-11-22T05:26:13.186Z,16.60
2022-11-22T05:28:40.095Z,21.30
2022-11-22T05:31:11.108Z,22.83
2022-11-22T05:33:39.345Z,19.07
2022-11-22T05:36:06.667Z,21.77
2022-11-22T05:38:35.721Z,20.87
2022-11-22T05:41:03.438Z,18.17
2022-11-22T05:43:30.326Z,19.70
2022-11-22T05:45:57.148Z,22.17
2022-11-22T05:48:23.977Z,17.17
2022-11-22T05:50:50.840Z,19.50
2022-11-22T05:53:17.712Z,20.73
2022-11-22T05:55:44.551Z,34.33
2022-11-22T05:58:11.365Z,18.20
2022-11-22T06:00:38.355Z,22.63
2022-11-22T06:03:05.192Z,20.83
2022-11-22T06:05:32.219Z,19.27
2022-11-22T06:08:00.640Z,18.40
2022-11-22T06:10:27.625Z,18.27
2022-11-22T06:12:54.626Z,17.30
2022-11-22T06:15:22.041Z,15.80
2022-11-22T06:17:48.840Z,16.10
2022-11-22T06:20:16.845Z,16.73
2022-11-22T06:22:43.764Z,19.50
2022-11-22T06:25:10.979Z,18.77
2022-11-22T06:27:38.176Z,16.70
2022-11-22T06:30:05.682Z,17.17
2022-11-22T06:32:33.387Z,20.17
2022-11-22T06:35:00.528Z,22.27
2022-11-22T06:37:27.531Z,24.93
2022-11-22T06:39:54.414Z,23.80
2022-11-22T06:42:21.247Z,20.33
2022-11-22T06:44:48.095Z,20.70
2022-11-22T06:47:14.891Z,22.20
2022-11-22T06:49:41.791Z,19.53
2022-11-22T06:52:08.539Z,19.77
2022-11-22T06:54:35.516Z,16.20
2022-11-22T06:57:02.567Z,17.63
2022-11-22T06:59:29.621Z,17.70
2022-11-22T07:01:59.020Z,17.77
2022-11-22T07:04:29.824Z,18.27
2022-11-22T07:06:56.777Z,18.90
2022-11-22T07:09:23.593Z,18.73
2022-11-22T07:11:51.095Z,17.43
2022-11-22T07:14:17.872Z,17.07
2022-11-22T07:16:44.704Z,16.80
2022-11-22T07:19:11.535Z,29.03
2022-11-22T07:21:38.489Z,27.87
2022-11-22T07:24:06.189Z,20.23
2022-11-22T07:26:32.975Z,21.03
2022-11-22T07:28:59.884Z,20.57
2022-11-22T07:31:26.735Z,20.93
2022-11-22T07:33:55.369Z,21.03
2022-11-22T07:36:22.740Z,19.00
2022-11-22T07:38:49.911Z,18.93
2022-11-22T07:41:17.417Z,20.97
2022-11-22T07:43:44.646Z,19.17
2022-11-22T07:46:20.505Z,30.30
2022-11-22T07:48:48.057Z,78.97
2022-11-22T07:51:14.973Z,34.87
2022-11-22T07:53:41.781Z,28.07
2022-11-22T07:56:08.954Z,19.93
2022-11-22T07:58:35.927Z,18.50
2022-11-22T08:01:06.545Z,19.10
2022-11-22T08:03:33.569Z,19.90
2022-11-22T08:06:01.263Z,24.07
2022-11-22T08:08:28.433Z,22.27
2022-11-22T08:10:55.457Z,21.60
2022-11-22T08:13:22.685Z,20.53
2022-11-22T08:15:50.777Z,19.40
2022-11-22T08:18:18.292Z,19.93
2022-11-22T08:20:45.166Z,19.83
2022-11-22T08:23:12.042Z,22.23
2022-11-22T08:25:38.800Z,20.07
2022-11-22T08:28:05.732Z,17.83
2022-11-22T08:30:32.601Z,15.63
2022-11-22T08:32:59.403Z,16.50
2022-11-22T08:35:26.254Z,17.57
2022-11-22T08:37:56.836Z,16.43
2022-11-22T08:40:23.671Z,15.77
2022-11-22T08:42:53.354Z,16.10
2022-11-22T08:45:20.220Z,16.50
2022-11-22T08:47:47.846Z,15.23
2022-11-22T08:50:15.263Z,15.03
2022-11-22T08:52:42.184Z,17.23
2022-11-22T08:55:09.221Z,16.30
2022-11-22T08:57:35.971Z,14.97
2022-11-22T09:00:02.927Z,14.50
2022-11-22T09:02:29.819Z,14.80
2022-11-22T09:04:56.642Z,14.00
2022-11-22T09:10:10.270Z,13.70
2022-11-22T09:12:37.024Z,18.33
2022-11-22T09:15:04.414Z,16.83
2022-11-22T09:17:31.177Z,15.77
2022-11-22T09:19:57.960Z,15.70
2022-11-22T09:22:28.434Z,15.33
2022-11-22T09:24:55.627Z,13.93
2022-11-22T09:27:22.409Z,14.97
2022-11-22T09:29:49.211Z,13.77
2022-11-22T09:32:16.256Z,14.60
2022-11-22T09:34:43.055Z,14.13
2022-11-22T09:37:09.933Z,13.13
2022-11-22T09:39:36.723Z,14.27
2022-11-22T09:42:05.291Z,13.97
2022-11-22T09:44:41.449Z,14.40
2022-11-22T09:47:08.280Z,13.63
2022-11-22T09:49:41.061Z,13.60
2022-11-22T09:52:10.948Z,12.63
2022-11-22T09:54:48.565Z,14.07
2022-11-22T09:57:36.993Z,12.90
2022-11-22T10:00:12.341Z,11.17
2022-11-22T10:02:59.538Z,11.73
2022-11-22T10:05:32.360Z,13.20
2022-11-22T10:08:17.847Z,13.03
2022-11-22T10:10:45.098Z,11.47
2022-11-22T10:13:17.293Z,10.33
2022-11-22T10:15:44.156Z,12.03
2022-11-22T10:18:11.806Z,11.03
2022-11-22T10:20:45.689Z,12.03
2022-11-22T10:23:16.860Z,11.53
2022-11-22T10:25:59.143Z,11.27
2022-11-22T10:28:44.689Z,10.70
2022-11-22T10:31:17.718Z,12.07
2022-11-22T10:33:45.023Z,11.87
2022-11-22T10:36:28.716Z,10.10
2022-11-22T10:39:15.877Z,10.57
2022-11-22T10:41:51.895Z,10.37
2022-11-22T10:44:32.407Z,10.07
2022-11-22T10:47:12.365Z,9.77
2022-11-22T10:49:58.222Z,10.07
2022-11-22T10:52:31.077Z,9.60
2022-11-22T10:55:06.919Z,8.90
2022-11-22T10:57:40.208Z,9.53
2022-11-22T11:00:16.206Z,9.50
2022-11-22T11:02:49.152Z,8.83
2022-11-22T11:05:19.463Z,9.67
2022-11-22T11:07:47.943Z,9.60
2022-11-22T11:10:32.312Z,7.67
2022-11-22T11:13:03.113Z,8.13
2022-11-22T11:15:42.860Z,7.57
2022-11-22T11:18:15.560Z,8.33
2022-11-22T11:20:43.634Z,7.30
2022-11-22T11:23:15.455Z,7.70
2022-11-22T11:25:44.009Z,6.90
2022-11-22T11:28:13.857Z,6.00
2022-11-22T11:30:46.312Z,6.20
2022-11-22T11:33:29.658Z,5.93
2022-11-22T11:35:57.827Z,5.63
2022-11-22T11:38:28.481Z,6.83
2022-11-22T11:40:55.439Z,6.87
2022-11-22T11:43:23.634Z,5.93
2022-11-22T11:45:50.678Z,6.37
2022-11-22T11:48:28.400Z,6.30
2022-11-22T11:51:14.565Z,6.63
2022-11-22T11:53:43.809Z,31.60
2022-11-22T11:56:31.505Z,9.10
2022-11-22T11:58:59.592Z,7.87
2022-11-22T12:01:26.581Z,6.63
2022-11-22T12:03:58.707Z,6.60
2022-11-22T12:06:32.691Z,7.13
2022-11-22T12:09:00.349Z,6.93
2022-11-22T12:11:43.176Z,7.00
2022-11-22T12:14:20.130Z,6.23
2022-11-22T12:16:49.398Z,6.80
2022-11-22T12:19:24.980Z,6.67
2022-11-22T12:22:09.827Z,6.43
2022-11-22T12:25:02.715Z,6.27
2022-11-22T12:27:23.440Z,6.53
2022-11-22T12:29:50.299Z,6.87
2022-11-22T12:32:20.264Z,5.93
2022-11-22T12:34:47.105Z,6.30
2022-11-22T12:37:19.856Z,7.80
2022-11-22T12:39:48.377Z,6.83
2022-11-22T12:42:22.815Z,7.17
2022-11-22T12:44:56.102Z,6.47
2022-11-22T12:47:24.811Z,6.77
2022-11-22T12:49:53.734Z,7.00
2022-11-22T12:52:26.035Z,5.60
2022-11-22T12:54:55.654Z,6.10
2022-11-22T12:57:31.337Z,6.43
2022-11-22T13:00:01.216Z,6.30
2022-11-22T13:02:41.076Z,5.60
2022-11-22T13:05:17.183Z,6.50
2022-11-22T13:07:47.011Z,5.47
2022-11-22T13:10:30.668Z,5.77
2022-11-22T13:12:59.260Z,6.20
2022-11-22T13:15:28.317Z,5.77
2022-11-22T13:17:55.421Z,5.97
2022-11-22T13:20:25.172Z,6.30
2022-11-22T13:23:10.884Z,5.53
2022-11-22T13:25:46.380Z,6.07
2022-11-22T13:28:14.973Z,6.20
2022-11-22T13:31:01.775Z,6.00
2022-11-22T13:33:28.687Z,6.67
2022-11-22T13:36:15.411Z,6.13
2022-11-22T13:38:43.920Z,6.23
2022-11-22T13:41:29.239Z,5.23
2022-11-22T13:43:57.632Z,6.23
2022-11-22T13:46:42.896Z,5.50
2022-11-22T13:49:14.585Z,6.07
2022-11-22T13:51:52.183Z,5.40
2022-11-22T13:54:34.274Z,6.43
2022-11-22T13:57:06.024Z,6.27
2022-11-22T13:59:33.294Z,5.87
2022-11-22T14:02:01.689Z,5.40
2022-11-22T14:04:37.909Z,5.53
2022-11-22T14:07:11.133Z,6.90
2022-11-22T14:10:04.545Z,7.37
2022-11-22T14:12:37.371Z,6.37
2022-11-22T14:15:27.519Z,5.30
2022-11-22T14:17:57.576Z,6.20
2022-11-22T14:20:24.428Z,5.73
2022-11-22T14:22:57.121Z,6.10
2022-11-22T14:25:41.139Z,7.10
2022-11-22T14:28:07.995Z,6.10
2022-11-22T14:30:54.322Z,6.17
2022-11-22T14:33:22.786Z,6.17
2022-11-22T14:36:07.983Z,5.10
2022-11-22T14:38:39.027Z,4.83
2022-11-22T14:41:24.805Z,5.97
2022-11-22T14:43:53.651Z,6.00
2022-11-22T14:46:51.191Z,5.70
2022-11-22T14:49:15.299Z,7.20
2022-11-22T14:51:42.396Z,5.43
2022-11-22T14:54:28.345Z,5.67
2022-11-22T14:57:01.240Z,5.10
2022-11-22T14:59:39.849Z,5.73
2022-11-22T15:02:25.485Z,5.57
2022-11-22T15:09:09.894Z,5.90
2022-11-22T15:09:11.238Z,4.97
2022-11-22T15:11:11.381Z,5.80
2022-11-22T15:13:47.607Z,6.23
2022-11-22T15:59:43.697Z,28.97
2022-11-22T16:02:14.843Z,39.50
2022-11-22T16:04:47.099Z,31.90
2022-11-22T16:07:21.115Z,31.23
2022-11-22T16:09:50.223Z,58.77
2022-11-22T16:12:35.102Z,55.03
2022-11-22T16:15:20.739Z,132.57
2022-11-22T16:17:56.465Z,44.33
2022-11-22T16:20:27.875Z,29.30
2022-11-22T16:23:09.933Z,25.87
2022-11-22T16:25:44.833Z,31.07
2022-11-22T16:28:17.539Z,35.67
2022-11-22T16:30:44.569Z,39.43
2022-11-22T16:33:11.508Z,33.20
2022-11-22T16:35:39.056Z,32.47
2022-11-22T16:38:07.732Z,32.53
2022-11-22T16:40:41.295Z,35.20
2022-11-22T16:43:15.030Z,29.43
2022-11-22T16:45:41.965Z,24.13
2022-11-22T16:48:30.882Z,25.83
2022-11-22T16:51:01.023Z,26.63
2022-11-22T16:53:34.805Z,23.00
2022-11-22T16:56:01.665Z,20.47
2022-11-22T16:58:28.673Z,18.03
2022-11-22T17:00:56.120Z,41.70
2022-11-22T17:03:24.418Z,88.00
2022-11-22T17:05:51.220Z,161.70
2022-11-22T17:08:19.300Z,109.80
2022-11-22T17:10:47.331Z,34.83
2022-11-22T17:13:21.828Z,31.07
2022-11-22T17:15:49.040Z,23.83
2022-11-22T17:18:15.946Z,20.13
2022-11-22T17:20:43.046Z,15.03
2022-11-22T17:23:13.152Z,14.03
2022-11-22T17:25:40.066Z,14.43
2022-11-22T17:28:06.988Z,14.60
2022-11-22T17:30:33.819Z,14.20
2022-11-22T17:33:00.700Z,13.80
2022-11-22T17:35:32.165Z,14.37
2022-11-22T17:38:02.847Z,14.30
2022-11-22T17:40:29.671Z,16.03
2022-11-22T17:42:56.920Z,16.50
2022-11-22T17:45:23.848Z,18.80
2022-11-22T17:47:51.560Z,23.00
2022-11-22T17:50:18.517Z,22.53
2022-11-22T17:52:45.291Z,21.13
2022-11-22T17:55:14.496Z,19.67
2022-11-22T17:57:41.817Z,19.17
2022-11-22T18:00:08.786Z,17.90
2022-11-22T18:02:35.680Z,16.07
2022-11-22T18:05:06.017Z,15.83
2022-11-22T18:07:33.260Z,16.17
2022-11-22T18:10:00.250Z,16.27
2022-11-22T18:12:27.454Z,15.17
2022-11-22T18:14:54.351Z,14.60
2022-11-22T18:17:21.178Z,16.30
2022-11-22T18:19:48.057Z,16.30
2022-11-22T18:22:14.884Z,15.00
2022-11-22T18:24:41.677Z,16.27
2022-11-22T18:27:08.528Z,17.07
2022-11-22T18:29:42.060Z,15.70
2022-11-22T18:32:09.923Z,15.80
2022-11-22T18:34:36.783Z,17.10
2022-11-22T18:37:11.550Z,16.13
2022-11-22T18:39:39.662Z,17.80
2022-11-22T18:42:07.699Z,18.07
2022-11-22T18:44:34.566Z,17.93
2022-11-22T18:47:01.618Z,39.20
2022-11-22T18:49:28.654Z,24.57
2022-11-22T18:51:55.979Z,24.23
2022-11-22T18:54:23.336Z,17.90
2022-11-22T18:56:51.007Z,20.30
2022-11-22T18:59:18.082Z,21.77
2022-11-22T19:01:45.017Z,18.60
2022-11-22T19:04:15.396Z,27.15
2022-11-22T19:06:42.755Z,27.10
2022-11-22T19:09:09.649Z,21.03
2022-11-22T19:11:36.571Z,28.77
2022-11-22T19:14:03.553Z,32.33
2022-11-22T19:16:30.741Z,29.17
2022-11-22T19:18:57.970Z,22.40
2022-11-22T19:21:26.930Z,22.37
2022-11-22T19:23:54.358Z,27.00
2022-11-22T19:26:22.820Z,25.37
2022-11-22T19:28:50.321Z,23.70
2022-11-22T19:31:19.226Z,23.97
2022-11-22T19:33:46.263Z,21.10
2022-11-22T19:36:14.394Z,23.93
2022-11-22T19:38:41.731Z,21.87
2022-11-22T19:41:12.623Z,22.43
2022-11-22T19:43:39.528Z,31.53
2022-11-22T19:46:07.020Z,27.43
2022-11-22T19:48:35.487Z,31.27
2022-11-22T19:51:09.878Z,42.87
2022-11-22T19:53:36.780Z,29.03
2022-11-22T19:56:07.680Z,24.07
2022-11-22T19:58:34.563Z,21.90
2022-11-22T20:01:05.729Z,19.70
2022-11-22T20:03:36.612Z,18.60
2022-11-22T20:06:04.811Z,15.97
2022-11-22T20:08:32.185Z,16.10
2022-11-22T20:11:03.275Z,14.93
2022-11-22T20:13:30.459Z,15.27
2022-11-22T20:15:57.678Z,17.20
2022-11-22T20:18:24.529Z,18.67
2022-11-22T20:20:51.673Z,18.27
2022-11-22T20:23:18.441Z,17.53
2022-11-22T20:25:45.237Z,17.33
2022-11-22T20:28:12.184Z,18.50
2022-11-22T20:30:38.991Z,18.87
2022-11-22T20:33:05.976Z,22.50
2022-11-22T20:35:32.999Z,33.37
2022-11-22T20:38:00.232Z,23.43
2022-11-22T20:40:27.146Z,19.80
2022-11-22T20:42:53.973Z,19.03
2022-11-22T20:45:21.219Z,22.90
2022-11-22T20:47:48.148Z,19.80
2022-11-22T20:50:15.004Z,19.87
2022-11-22T20:52:41.877Z,21.93
2022-11-22T20:55:08.969Z,22.17
2022-11-22T20:57:35.872Z,22.30
2022-11-22T21:00:03.193Z,24.80
2022-11-22T21:02:30.010Z,25.97
2022-11-22T21:04:56.911Z,25.20
2022-11-22T21:07:25.878Z,27.87
2022-11-22T21:09:53.270Z,29.67
2022-11-22T21:12:20.384Z,35.37
2022-11-22T21:14:50.232Z,33.23
2022-11-22T21:17:41.941Z,62.50
2022-11-22T21:20:07.383Z,46.60
2022-11-22T21:22:34.172Z,32.90
2022-11-22T21:25:01.200Z,30.50
2022-11-22T21:27:28.947Z,30.13
2022-11-22T21:29:55.796Z,30.37
2022-11-22T21:32:22.736Z,29.47
2022-11-22T21:34:49.718Z,30.87
2022-11-22T21:37:17.859Z,30.57
2022-11-22T21:39:45.661Z,31.87
2022-11-22T21:42:12.591Z,31.23
2022-11-22T21:44:39.958Z,32.37
2022-11-22T21:47:07.057Z,26.93
2022-11-22T21:49:33.898Z,29.23
2022-11-22T21:52:00.910Z,27.57
2022-11-22T21:54:28.320Z,27.03
2022-11-22T21:57:20.637Z,28.47
2022-11-22T21:59:48.237Z,27.60
2022-11-22T22:02:15.407Z,28.47
2022-11-22T22:04:42.700Z,31.87
2022-11-22T22:07:29.537Z,30.87
2022-11-22T22:09:57.516Z,30.60
2022-11-22T22:12:25.148Z,31.40
2022-11-22T22:14:52.392Z,32.23
2022-11-22T22:17:19.316Z,33.10
2022-11-22T22:19:52.464Z,31.57
2022-11-22T22:22:19.405Z,32.30
2022-11-22T22:24:46.775Z,36.10
2022-11-22T22:27:14.193Z,36.60
2022-11-22T22:29:41.140Z,35.40
2022-11-22T22:32:10.732Z,43.07
2022-11-22T22:34:37.847Z,38.83
2022-11-22T22:37:04.960Z,35.23
2022-11-22T22:39:33.286Z,33.40
2022-11-22T22:42:00.467Z,29.67
2022-11-22T22:44:27.258Z,30.27
2022-11-22T22:46:54.134Z,27.57
2022-11-22T22:49:20.897Z,29.93
2022-11-22T22:51:48.895Z,29.00
2022-11-22T22:54:15.803Z,29.77
2022-11-22T22:56:43.870Z,30.27
2022-11-22T22:59:10.816Z,30.20
2022-11-22T23:01:37.557Z,28.03
2022-11-22T23:04:04.611Z,28.03
2022-11-22T23:06:32.763Z,30.03
2022-11-22T23:08:59.958Z,33.97
2022-11-22T23:11:46.829Z,27.23
2022-11-22T23:14:14.934Z,28.70
2022-11-22T23:16:41.698Z,28.60
2022-11-22T23:19:08.712Z,28.80
2022-11-22T23:21:35.925Z,29.17
2022-11-22T23:24:02.938Z,31.13
2022-11-22T23:26:30.030Z,30.07
2022-11-22T23:28:56.836Z,28.83
2022-11-22T23:31:23.711Z,28.80
2022-11-22T23:33:51.096Z,30.30
2022-11-22T23:36:18.890Z,31.37
2022-11-22T23:38:46.193Z,34.23
2022-11-22T23:41:17.117Z,30.63
2022-11-22T23:43:43.985Z,29.90
2022-11-22T23:46:16.351Z,29.93
2022-11-22T23:48:47.201Z,30.70
2022-11-22T23:51:15.093Z,30.00
2022-11-22T23:53:42.222Z,31.57
2022-11-22T23:56:15.077Z,32.50
2022-11-22T23:58:44.857Z,32.53
